createdAt,value
2022-08-23T00:01:31.301Z,271.27
2022-08-23T00:04:02.863Z,253.63
2022-08-23T00:06:30.902Z,262.02
2022-08-23T00:08:59.105Z,269.02
2022-08-23T00:11:33.988Z,264.55
2022-08-23T00:14:06.615Z,302.60
2022-08-23T00:16:33.423Z,322.73
2022-08-23T00:19:00.179Z,502.45
2022-08-23T00:21:29.158Z,599.72
2022-08-23T00:23:56.416Z,522.28
2022-08-23T00:26:23.526Z,286.55
2022-08-23T00:28:50.479Z,291.30
2022-08-23T00:31:20.074Z,284.45
2022-08-23T00:33:47.036Z,283.80
2022-08-23T00:36:14.995Z,303.80
2022-08-23T00:38:42.083Z,301.48
2022-08-23T00:41:09.254Z,497.67
2022-08-23T00:43:59.500Z,513.00
2022-08-23T00:47:10.068Z,646.90
2022-08-23T00:49:39.700Z,880.58
2022-08-23T00:52:32.439Z,999.90
2022-08-23T00:55:00.338Z,999.90
2022-08-23T00:57:28.853Z,999.90
2022-08-23T00:59:56.748Z,999.90
2022-08-23T01:02:24.931Z,999.90
2022-08-23T01:04:58.169Z,666.92
2022-08-23T01:07:46.893Z,999.90
2022-08-23T01:10:42.168Z,999.90
2022-08-23T01:13:21.213Z,773.92
2022-08-23T01:15:56.031Z,467.58
2022-08-23T01:18:26.755Z,473.58
2022-08-23T01:21:16.242Z,492.08
2022-08-23T01:23:53.508Z,471.58
2022-08-23T01:26:22.542Z,491.40
2022-08-23T01:28:51.445Z,496.35
2022-08-23T01:31:21.005Z,483.30
2022-08-23T01:33:55.851Z,500.15
2022-08-23T01:36:23.696Z,463.57
2022-08-23T01:38:52.882Z,447.23
2022-08-23T01:41:20.277Z,484.45
2022-08-23T01:43:48.744Z,493.65
2022-08-23T01:46:20.813Z,492.20
2022-08-23T01:48:51.291Z,478.80
2022-08-23T01:51:20.126Z,498.37
2022-08-23T01:53:47.457Z,473.42
2022-08-23T01:56:20.190Z,484.52
2022-08-23T01:59:01.666Z,469.70
2022-08-23T02:01:34.832Z,450.15
2022-08-23T02:04:04.766Z,489.37
2022-08-23T02:06:33.254Z,499.20
2022-08-23T02:09:03.954Z,375.52
2022-08-23T02:11:38.670Z,379.00
2022-08-23T02:14:11.987Z,369.75
2022-08-23T02:16:58.075Z,325.35
2022-08-23T02:19:37.817Z,329.98
2022-08-23T02:22:07.375Z,329.20
2022-08-23T02:24:38.874Z,339.90
2022-08-23T02:27:06.200Z,343.65
2022-08-23T02:29:39.797Z,380.73
2022-08-23T02:32:10.458Z,366.77
2022-08-23T02:34:39.562Z,329.27
2022-08-23T02:37:09.061Z,455.23
2022-08-23T02:39:36.559Z,287.55
2022-08-23T02:42:07.124Z,372.95
2022-08-23T02:44:38.331Z,374.13
2022-08-23T02:47:07.583Z,370.23
2022-08-23T02:49:35.775Z,368.02
2022-08-23T02:52:06.290Z,357.80
2022-08-23T02:54:35.536Z,388.63
2022-08-23T02:57:04.531Z,343.30
2022-08-23T02:59:33.386Z,351.67
2022-08-23T03:02:00.398Z,318.38
2022-08-23T03:04:32.623Z,307.60
2022-08-23T03:06:59.466Z,311.75
2022-08-23T03:09:27.810Z,340.55
2022-08-23T03:11:54.652Z,306.13
2022-08-23T03:14:22.226Z,289.15
2022-08-23T03:16:49.510Z,282.10
2022-08-23T03:19:17.119Z,281.13
2022-08-23T03:21:45.120Z,321.50
2022-08-23T03:24:12.858Z,309.23
2022-08-23T03:26:45.953Z,270.20
2022-08-23T03:29:15.540Z,273.48
2022-08-23T03:32:02.035Z,296.50
2022-08-23T03:34:32.651Z,279.93
2022-08-23T03:37:00.915Z,277.02
2022-08-23T03:39:28.678Z,280.60
2022-08-23T03:41:57.846Z,271.80
2022-08-23T03:44:25.588Z,255.50
2022-08-23T03:46:52.385Z,258.52
2022-08-23T03:49:19.999Z,238.73
2022-08-23T03:51:56.088Z,223.10
2022-08-23T03:54:23.199Z,225.27
2022-08-23T03:56:55.942Z,219.93
2022-08-23T03:59:23.984Z,229.45
2022-08-23T04:01:50.831Z,234.43
2022-08-23T04:04:17.792Z,192.82
2022-08-23T04:07:07.986Z,180.85
2022-08-23T04:09:36.214Z,198.52
2022-08-23T04:12:03.453Z,200.38
2022-08-23T04:14:38.870Z,203.95
2022-08-23T04:17:05.962Z,190.25
2022-08-23T04:19:32.751Z,209.63
2022-08-23T04:22:03.706Z,219.52
2022-08-23T04:24:37.610Z,224.23
2022-08-23T04:27:05.140Z,202.37
2022-08-23T04:29:34.153Z,202.30
2022-08-23T04:32:05.419Z,211.48
2022-08-23T04:34:38.138Z,201.02
2022-08-23T04:37:10.202Z,204.45
2022-08-23T04:39:57.283Z,199.85
2022-08-23T04:42:26.802Z,220.57
2022-08-23T04:44:53.830Z,206.98
2022-08-23T04:47:20.958Z,205.37
2022-08-23T04:49:49.466Z,217.10
2022-08-23T04:52:19.371Z,214.37
2022-08-23T04:54:47.371Z,195.15
2022-08-23T04:57:35.863Z,169.07
2022-08-23T05:00:04.578Z,176.48
2022-08-23T05:02:31.700Z,173.80
2022-08-23T05:04:58.488Z,181.57
2022-08-23T05:07:31.904Z,158.55
2022-08-23T05:10:16.236Z,139.80
2022-08-23T05:12:48.500Z,128.45
2022-08-23T05:15:16.968Z,120.30
2022-08-23T05:17:47.003Z,133.07
2022-08-23T05:20:14.016Z,124.78
2022-08-23T05:22:42.719Z,134.07
2022-08-23T05:25:21.335Z,134.48
2022-08-23T05:27:49.291Z,125.27
2022-08-23T05:30:16.141Z,137.13
2022-08-23T05:32:43.868Z,147.90
2022-08-23T05:35:12.719Z,138.50
2022-08-23T05:37:42.802Z,132.73
2022-08-23T05:40:11.029Z,157.23
2022-08-23T05:42:47.204Z,100.15
2022-08-23T05:45:15.580Z,82.07
2022-08-23T05:47:47.451Z,73.72
2022-08-23T05:50:25.818Z,62.03
2022-08-23T05:52:52.723Z,101.05
2022-08-23T05:55:21.885Z,164.20
2022-08-23T05:58:09.930Z,105.13
2022-08-23T06:00:39.257Z,106.72
2022-08-23T06:03:07.442Z,110.47
2022-08-23T06:05:37.834Z,113.10
2022-08-23T06:08:15.415Z,140.73
2022-08-23T06:10:42.617Z,115.53
2022-08-23T06:13:30.289Z,123.93
2022-08-23T06:15:58.753Z,121.63
2022-08-23T06:18:26.958Z,135.90
2022-08-23T06:21:06.490Z,120.15
2022-08-23T06:23:43.315Z,117.47
2022-08-23T06:26:19.698Z,130.35
2022-08-23T06:28:50.498Z,144.68
2022-08-23T06:31:40.552Z,108.97
2022-08-23T06:34:18.554Z,141.13
2022-08-23T06:37:14.342Z,105.00
2022-08-23T06:40:08.381Z,110.00
2022-08-23T06:42:47.311Z,146.15
2022-08-23T06:45:19.147Z,116.73
2022-08-23T06:47:48.805Z,125.67
2022-08-23T06:50:15.617Z,138.45
2022-08-23T06:53:07.023Z,148.50
2022-08-23T06:55:43.103Z,123.28
2022-08-23T06:58:17.731Z,145.70
2022-08-23T07:01:44.023Z,147.55
2022-08-23T07:04:18.551Z,162.05
2022-08-23T07:07:11.340Z,121.63
2022-08-23T07:09:39.660Z,142.18
2022-08-23T07:12:07.354Z,143.45
2022-08-23T07:14:37.954Z,125.20
2022-08-23T07:17:05.526Z,121.90
2022-08-23T07:19:34.570Z,140.85
2022-08-23T07:22:02.791Z,133.35
2022-08-23T07:24:33.511Z,118.15
2022-08-23T07:27:07.080Z,133.65
2022-08-23T07:29:37.739Z,131.00
2022-08-23T07:32:04.928Z,118.68
2022-08-23T07:34:33.103Z,126.17
2022-08-23T07:37:01.430Z,130.73
2022-08-23T07:39:31.582Z,127.85
2022-08-23T07:42:01.423Z,126.70
2022-08-23T07:44:48.289Z,132.27
2022-08-23T07:47:21.294Z,113.72
2022-08-23T07:49:48.265Z,102.13
2022-08-23T07:52:15.283Z,107.45
2022-08-23T07:54:48.266Z,113.65
2022-08-23T07:57:35.074Z,111.90
2022-08-23T08:00:11.919Z,104.15
2022-08-23T08:02:55.476Z,102.93
2022-08-23T08:05:32.567Z,124.68
2022-08-23T08:07:59.921Z,114.97
2022-08-23T08:10:27.960Z,113.68
2022-08-23T08:12:55.699Z,120.53
2022-08-23T08:15:24.598Z,98.35
2022-08-23T08:18:00.181Z,92.32
2022-08-23T08:20:50.155Z,97.50
2022-08-23T08:23:36.250Z,106.20
2022-08-23T08:26:28.898Z,115.45
2022-08-23T08:28:57.527Z,99.68
2022-08-23T08:31:27.587Z,110.45
2022-08-23T08:33:55.499Z,108.93
2022-08-23T08:36:32.023Z,106.68
2022-08-23T08:39:00.828Z,95.13
2022-08-23T08:42:05.368Z,94.60
2022-08-23T08:44:42.166Z,112.70
2022-08-23T08:47:31.222Z,112.97
2022-08-23T08:50:20.232Z,104.32
2022-08-23T08:52:57.722Z,93.63
2022-08-23T08:55:59.390Z,96.18
2022-08-23T08:58:35.958Z,108.22
2022-08-23T09:01:03.067Z,121.07
2022-08-23T09:03:34.479Z,123.32
2022-08-23T09:06:28.568Z,115.40
2022-08-23T09:09:08.750Z,112.43
2022-08-23T09:12:07.121Z,108.38
2022-08-23T09:14:40.455Z,124.25
2022-08-23T09:17:21.575Z,125.50
2022-08-23T09:19:50.675Z,116.55
2022-08-23T09:22:28.296Z,123.97
2022-08-23T09:24:58.100Z,86.90
2022-08-23T09:27:30.881Z,64.03
2022-08-23T09:30:02.644Z,100.15
2022-08-23T09:32:30.876Z,80.95
2022-08-23T09:35:08.220Z,124.82
2022-08-23T09:37:47.415Z,113.55
2022-08-23T09:40:26.575Z,127.03
2022-08-23T09:43:08.191Z,111.65
2022-08-23T09:45:53.499Z,127.13
2022-08-23T09:48:33.355Z,124.90
2022-08-23T09:51:19.812Z,108.40
2022-08-23T09:53:50.699Z,125.70
2022-08-23T09:56:24.743Z,104.45
2022-08-23T09:58:54.024Z,134.52
2022-08-23T10:01:39.299Z,111.68
2022-08-23T10:04:16.488Z,119.07
2022-08-23T10:06:46.271Z,126.28
2022-08-23T10:09:26.530Z,102.38
2022-08-23T10:11:54.498Z,136.05
2022-08-23T10:14:24.288Z,129.73
2022-08-23T10:16:56.772Z,111.20
2022-08-23T10:19:40.531Z,114.75
2022-08-23T10:22:13.951Z,115.22
2022-08-23T10:24:48.028Z,127.77
2022-08-23T10:28:03.963Z,131.25
2022-08-23T10:30:39.634Z,143.50
2022-08-23T10:33:19.902Z,125.88
2022-08-23T10:35:54.960Z,136.90
2022-08-23T10:38:23.165Z,129.13
2022-08-23T10:41:37.601Z,128.70
2022-08-23T10:44:07.082Z,140.93
2022-08-23T10:46:41.766Z,146.30
2022-08-23T10:49:13.100Z,150.17
2022-08-23T10:51:43.913Z,129.35
2022-08-23T10:54:18.711Z,133.20
2022-08-23T10:56:50.854Z,142.95
2022-08-23T10:59:26.364Z,141.27
2022-08-23T11:02:32.411Z,140.85
2022-08-23T11:05:27.072Z,146.68
2022-08-23T11:08:05.053Z,151.48
2022-08-23T11:10:34.766Z,144.10
2022-08-23T11:13:25.769Z,139.63
2022-08-23T11:16:01.306Z,134.52
2022-08-23T11:18:34.380Z,143.67
2022-08-23T11:21:09.626Z,144.98
2022-08-23T11:23:44.847Z,57.00
2022-08-23T11:26:39.761Z,73.85
2022-08-23T11:29:09.632Z,129.53
2022-08-23T11:31:48.802Z,94.13
2022-08-23T11:34:51.461Z,68.70
2022-08-23T11:37:19.014Z,155.60
2022-08-23T11:39:58.448Z,154.93
2022-08-23T11:42:52.848Z,138.48
2022-08-23T11:45:46.638Z,147.48
2022-08-23T11:48:22.624Z,148.70
2022-08-23T11:50:59.568Z,134.60
2022-08-23T11:53:41.799Z,135.93
2022-08-23T11:56:23.655Z,157.25
2022-08-23T11:59:21.668Z,149.88
2022-08-23T12:01:50.758Z,151.80
2022-08-23T12:04:38.158Z,157.57
2022-08-23T12:07:12.724Z,145.50
2022-08-23T12:09:42.980Z,155.48
2022-08-23T12:12:34.787Z,146.03
2022-08-23T12:15:08.839Z,91.85
2022-08-23T12:17:40.476Z,84.38
2022-08-23T12:20:16.985Z,86.03
2022-08-23T12:23:04.643Z,95.85
2022-08-23T12:25:32.303Z,83.33
2022-08-23T12:28:29.889Z,86.60
2022-08-23T12:31:14.730Z,93.63
2022-08-23T12:34:02.290Z,82.50
2022-08-23T12:36:39.295Z,82.83
2022-08-23T12:39:09.218Z,88.38
2022-08-23T12:41:56.188Z,78.07
2022-08-23T12:44:26.840Z,26.47
2022-08-23T12:46:54.100Z,22.20
2022-08-23T12:49:26.175Z,31.90
2022-08-23T12:51:55.434Z,35.87
2022-08-23T12:54:33.115Z,16.92
2022-08-23T12:57:00.639Z,17.27
2022-08-23T12:59:34.534Z,18.10
2022-08-23T13:02:09.782Z,75.25
2022-08-23T13:04:39.862Z,79.25
2022-08-23T13:07:12.241Z,89.00
2022-08-23T13:09:41.870Z,96.80
2022-08-23T13:12:10.887Z,40.03
2022-08-23T13:14:43.198Z,97.85
2022-08-23T13:17:25.420Z,97.07
2022-08-23T13:20:01.387Z,105.27
2022-08-23T13:22:33.363Z,97.13
2022-08-23T13:25:31.934Z,108.00
2022-08-23T13:28:23.691Z,95.20
2022-08-23T13:31:08.020Z,103.05
2022-08-23T13:33:35.170Z,93.38
2022-08-23T13:36:31.991Z,96.72
2022-08-23T13:39:05.844Z,105.68
2022-08-23T13:41:38.743Z,98.97
2022-08-23T13:44:08.793Z,118.95
2022-08-23T13:46:45.083Z,97.50
2022-08-23T13:49:18.105Z,94.40
2022-08-23T13:52:38.008Z,90.75
2022-08-23T13:54:54.643Z,109.85
2022-08-23T13:57:22.187Z,60.40
2022-08-23T13:59:52.923Z,48.10
2022-08-23T14:02:22.361Z,59.95
2022-08-23T14:04:49.558Z,74.60
2022-08-23T14:07:16.722Z,61.88
2022-08-23T14:09:44.021Z,83.30
2022-08-23T14:12:17.852Z,103.03
2022-08-23T14:14:45.576Z,57.23
2022-08-23T14:17:16.598Z,106.30
2022-08-23T14:22:35.523Z,105.47
2022-08-23T14:25:02.527Z,96.87
2022-08-23T14:27:29.699Z,120.00
2022-08-23T14:29:56.483Z,118.15
2022-08-23T14:32:23.462Z,107.40
2022-08-23T14:34:50.326Z,112.18
2022-08-23T14:38:00.852Z,123.47
2022-08-23T14:40:05.263Z,98.65
2022-08-23T14:42:32.562Z,98.72
2022-08-23T14:44:59.899Z,101.60
2022-08-23T14:47:27.048Z,109.70
2022-08-23T14:49:54.470Z,110.10
2022-08-23T14:52:21.721Z,106.45
2022-08-23T14:54:49.864Z,72.18
2022-08-23T14:57:16.710Z,106.72
2022-08-23T14:59:43.624Z,113.03
2022-08-23T15:02:13.270Z,97.57
2022-08-23T15:04:41.646Z,116.33
2022-08-23T15:07:24.033Z,105.05
2022-08-23T15:09:54.647Z,100.25
2022-08-23T15:15:16.503Z,100.47
2022-08-23T15:17:53.379Z,105.93
2022-08-23T15:20:32.719Z,113.63
2022-08-23T15:23:00.539Z,111.03
2022-08-23T15:25:30.463Z,117.13
2022-08-23T15:27:58.462Z,106.28
2022-08-23T15:30:25.426Z,112.75
2022-08-23T15:33:02.464Z,113.63
2022-08-23T15:35:36.647Z,109.30
2022-08-23T15:38:06.286Z,116.43
2022-08-23T15:40:33.137Z,125.90
2022-08-23T15:43:00.179Z,122.70
2022-08-23T15:45:27.199Z,114.45
2022-08-23T15:47:56.802Z,129.93
2022-08-23T15:50:26.951Z,120.50
2022-08-23T15:52:53.898Z,60.20
2022-08-23T15:55:21.238Z,114.07
2022-08-23T15:57:50.906Z,103.55
2022-08-23T16:00:20.065Z,128.75
2022-08-23T16:03:15.911Z,61.53
2022-08-23T16:05:35.340Z,115.45
2022-08-23T16:08:02.166Z,118.45
2022-08-23T16:10:29.019Z,117.05
2022-08-23T16:12:56.126Z,120.25
2022-08-23T16:15:23.047Z,130.13
2022-08-23T16:17:49.894Z,126.15
2022-08-23T16:20:17.534Z,121.03
2022-08-23T16:22:44.813Z,104.55
2022-08-23T16:25:12.056Z,94.88
2022-08-23T16:27:38.997Z,124.17
2022-08-23T16:30:07.004Z,72.20
2022-08-23T16:32:33.730Z,51.83
2022-08-23T16:35:00.583Z,44.50
2022-08-23T16:37:27.387Z,46.60
2022-08-23T16:39:54.252Z,59.33
2022-08-23T16:42:21.224Z,108.65
2022-08-23T16:44:48.954Z,121.63
2022-08-23T16:47:16.907Z,127.80
2022-08-23T16:49:43.842Z,59.40
2022-08-23T16:52:11.690Z,130.50
2022-08-23T16:54:38.876Z,65.90
2022-08-23T16:57:06.810Z,53.67
2022-08-23T16:59:40.379Z,47.58
2022-08-23T17:02:10.793Z,52.97
2022-08-23T17:04:38.131Z,58.92
2022-08-23T17:07:05.075Z,54.70
2022-08-23T17:09:32.114Z,68.95
2022-08-23T17:11:59.240Z,108.03
2022-08-23T17:14:26.502Z,123.68
2022-08-23T17:16:53.470Z,126.85
2022-08-23T17:19:20.576Z,117.53
2022-08-23T17:21:47.440Z,81.57
2022-08-23T17:24:14.482Z,69.68
2022-08-23T17:26:41.684Z,78.40
2022-08-23T17:29:09.385Z,68.70
2022-08-23T17:31:37.814Z,43.53
2022-08-23T17:34:05.286Z,54.10
2022-08-23T17:36:47.858Z,56.22
2022-08-23T17:39:17.077Z,49.43
2022-08-23T17:41:45.546Z,47.65
2022-08-23T17:44:13.361Z,49.20
2022-08-23T17:46:43.369Z,59.00
2022-08-23T17:49:11.284Z,37.67
2022-08-23T17:51:40.471Z,47.60
2022-08-23T17:54:08.950Z,60.92
2022-08-23T17:56:37.042Z,53.13
2022-08-23T17:59:05.464Z,46.28
2022-08-23T18:01:33.397Z,45.40
2022-08-23T18:04:00.402Z,72.93
2022-08-23T18:06:27.370Z,58.10
2022-08-23T18:08:55.332Z,62.00
2022-08-23T18:11:22.806Z,56.80
2022-08-23T18:13:49.743Z,52.42
2022-08-23T18:16:17.085Z,59.75
2022-08-23T18:18:43.841Z,54.60
2022-08-23T18:21:14.146Z,62.37
2022-08-23T18:23:42.157Z,50.97
2022-08-23T18:26:46.635Z,72.30
2022-08-23T18:29:14.377Z,55.55
2022-08-23T18:31:43.382Z,57.30
2022-08-23T18:34:12.329Z,68.72
2022-08-23T18:36:39.572Z,70.50
2022-08-23T18:39:08.010Z,66.53
2022-08-23T18:41:35.319Z,47.67
2022-08-23T18:44:05.448Z,56.08
2022-08-23T18:46:37.463Z,68.28
2022-08-23T18:49:05.386Z,48.30
2022-08-23T18:51:32.407Z,65.68
2022-08-23T18:53:59.738Z,60.63
2022-08-23T18:56:26.684Z,53.83
2022-08-23T18:58:53.626Z,74.55
2022-08-23T19:01:46.927Z,58.15
2022-08-23T19:04:14.534Z,59.00
2022-08-23T19:06:42.096Z,50.03
2022-08-23T19:09:12.927Z,77.17
2022-08-23T19:11:40.585Z,55.55
2022-08-23T19:14:10.641Z,57.63
2022-08-23T19:16:38.260Z,50.17
2022-08-23T19:19:05.788Z,67.65
2022-08-23T19:21:33.690Z,43.75
2022-08-23T19:24:01.060Z,42.67
2022-08-23T19:26:32.576Z,61.05
2022-08-23T19:29:05.723Z,46.45
2022-08-23T19:31:36.229Z,42.25
2022-08-23T19:34:06.497Z,59.35
2022-08-23T19:36:46.395Z,47.50
2022-08-23T19:39:16.412Z,51.22
2022-08-23T19:41:43.757Z,52.20
2022-08-23T19:44:10.977Z,33.35
2022-08-23T19:46:41.904Z,36.28
2022-08-23T19:49:10.498Z,45.35
2022-08-23T19:51:38.156Z,51.67
2022-08-23T19:54:11.184Z,43.65
2022-08-23T19:56:43.236Z,117.47
2022-08-23T19:59:19.492Z,120.20
2022-08-23T20:01:50.935Z,135.73
2022-08-23T20:04:19.216Z,133.57
2022-08-23T20:06:46.711Z,141.90
2022-08-23T20:09:13.546Z,132.23
2022-08-23T20:11:41.373Z,145.88
2022-08-23T20:14:09.887Z,134.73
2022-08-23T20:16:40.726Z,148.85
2022-08-23T20:19:09.305Z,148.52
2022-08-23T20:21:36.529Z,159.68
2022-08-23T20:24:04.285Z,148.30
2022-08-23T20:26:38.986Z,152.40
2022-08-23T20:29:07.436Z,157.20
2022-08-23T20:31:39.455Z,155.40
2022-08-23T20:34:08.783Z,152.85
2022-08-23T20:36:36.101Z,160.88
2022-08-23T20:39:03.978Z,154.88
2022-08-23T20:41:34.956Z,171.38
2022-08-23T20:44:02.651Z,175.85
2022-08-23T20:46:29.886Z,159.23
2022-08-23T20:48:57.639Z,165.65
2022-08-23T20:51:27.344Z,169.55
2022-08-23T20:53:54.790Z,123.65
2022-08-23T20:56:23.454Z,115.18
2022-08-23T20:58:50.832Z,122.60
2022-08-23T21:01:18.368Z,117.00
2022-08-23T21:03:45.488Z,124.63
2022-08-23T21:06:20.002Z,172.60
2022-08-23T21:08:53.490Z,180.90
2022-08-23T21:11:21.775Z,174.60
2022-08-23T21:13:48.641Z,165.85
2022-08-23T21:16:16.954Z,146.27
2022-08-23T21:18:44.060Z,160.63
2022-08-23T21:21:11.680Z,181.63
2022-08-23T21:23:39.338Z,172.75
2022-08-23T21:26:07.378Z,167.15
2022-08-23T21:28:35.988Z,161.65
2022-08-23T21:31:09.106Z,170.10
2022-08-23T21:33:40.009Z,137.50
2022-08-23T21:36:08.875Z,166.85
2022-08-23T21:38:36.194Z,185.30
2022-08-23T21:41:05.496Z,176.60
2022-08-23T21:43:32.787Z,188.27
2022-08-23T21:45:59.815Z,184.52
2022-08-23T21:48:26.808Z,171.87
2022-08-23T21:50:54.023Z,170.95
2022-08-23T21:53:21.512Z,179.10
2022-08-23T21:55:48.327Z,184.88
2022-08-23T21:58:15.115Z,182.70
2022-08-23T22:00:42.362Z,182.27
2022-08-23T22:03:09.442Z,195.63
2022-08-23T22:05:40.947Z,167.23
2022-08-23T22:08:08.653Z,195.75
2022-08-23T22:10:37.840Z,198.60
2022-08-23T22:13:06.159Z,200.63
2022-08-23T22:15:33.600Z,216.35
2022-08-23T22:18:02.117Z,212.35
2022-08-23T22:20:31.476Z,198.02
2022-08-23T22:22:59.704Z,203.63
2022-08-23T22:25:27.267Z,207.30
2022-08-23T22:27:54.231Z,204.70
2022-08-23T22:30:21.621Z,212.75
2022-08-23T22:32:49.800Z,191.75
2022-08-23T22:35:16.684Z,194.70
2022-08-23T22:38:03.634Z,196.07
2022-08-23T22:40:31.491Z,218.73
2022-08-23T22:42:58.222Z,226.55
2022-08-23T22:45:25.071Z,215.75
2022-08-23T22:47:51.905Z,195.77
2022-08-23T22:50:18.770Z,226.63
2022-08-23T22:52:45.569Z,226.88
2022-08-23T22:55:12.376Z,229.77
2022-08-23T22:57:39.351Z,233.20
2022-08-23T23:00:10.877Z,243.02
2022-08-23T23:02:38.830Z,256.90
2022-08-23T23:05:07.097Z,260.60
2022-08-23T23:07:52.431Z,242.13
2022-08-23T23:10:19.409Z,256.83
2022-08-23T23:12:46.352Z,255.07
2022-08-23T23:15:13.564Z,255.48
2022-08-23T23:17:40.383Z,242.82
2022-08-23T23:20:26.315Z,255.13
2022-08-23T23:22:53.245Z,259.90
2022-08-23T23:25:20.179Z,262.83
2022-08-23T23:27:46.929Z,261.25
2022-08-23T23:30:14.282Z,279.48
2022-08-23T23:32:41.365Z,280.70
2022-08-23T23:35:10.541Z,281.83
2022-08-23T23:37:37.607Z,288.08
2022-08-23T23:40:05.959Z,286.83
2022-08-23T23:42:32.887Z,285.52
2022-08-23T23:44:59.703Z,318.33
2022-08-23T23:47:26.795Z,330.80
2022-08-23T23:49:53.694Z,316.75
2022-08-23T23:52:20.507Z,338.10
2022-08-23T23:54:47.316Z,371.37
2022-08-23T23:57:14.244Z,354.88
2022-08-23T23:59:41.199Z,406.20
